createdAt,value
2018-02-13T00:03:21.000Z,24.2
2018-02-13T00:13:21.000Z,24.2
2018-02-13T00:23:21.000Z,24.13
2018-02-13T00:33:21.000Z,24.08
2018-02-13T00:43:21.000Z,24.05
2018-02-13T00:53:21.000Z,23.97
2018-02-13T01:03:21.000Z,23.95
2018-02-13T01:13:21.000Z,23.86
2018-02-13T01:23:21.000Z,23.81
2018-02-13T01:33:25.000Z,23.7
2018-02-13T01:43:21.000Z,23.67
2018-02-13T01:53:21.000Z,23.66
2018-02-13T02:03:21.000Z,23.58
2018-02-13T02:13:21.000Z,23.55
2018-02-13T02:23:21.000Z,23.49
2018-02-13T02:33:21.000Z,23.45
2018-02-13T02:43:21.000Z,23.45
2018-02-13T02:53:21.000Z,23.39
2018-02-13T03:03:21.000Z,23.35
2018-02-13T03:13:21.000Z,23.35
2018-02-13T03:23:21.000Z,23.25
2018-02-13T03:33:21.000Z,23.25
2018-02-13T03:43:21.000Z,23.2
2018-02-13T03:53:21.000Z,23.19
2018-02-13T04:03:21.000Z,23.19
2018-02-13T04:13:21.000Z,23.16
2018-02-13T04:23:21.000Z,23.12
2018-02-13T04:33:21.000Z,23.11
2018-02-13T04:43:21.000Z,23.08
2018-02-13T04:53:21.000Z,23.02
2018-02-13T05:03:21.000Z,22.97
2018-02-13T05:13:21.000Z,23.1
2018-02-13T05:23:21.000Z,23.09
2018-02-13T05:33:21.000Z,23.12
2018-02-13T05:43:21.000Z,23.08
2018-02-13T05:53:21.000Z,23.08
2018-02-13T06:03:21.000Z,23.08
2018-02-13T06:13:21.000Z,23.08
2018-02-13T06:23:21.000Z,23.19
2018-02-13T06:33:22.000Z,23.28
2018-02-13T06:43:21.000Z,23.35
2018-02-13T06:53:22.000Z,23.42
2018-02-13T07:03:22.000Z,23.38
2018-02-13T07:13:22.000Z,23.36
2018-02-13T07:23:22.000Z,23.55
2018-02-13T07:33:22.000Z,23.6
2018-02-13T07:43:22.000Z,23.73
2018-02-13T07:53:22.000Z,23.82
2018-02-13T08:03:22.000Z,23.95
2018-02-13T08:13:22.000Z,23.94
2018-02-13T08:23:22.000Z,23.43
2018-02-13T08:33:22.000Z,23.4
2018-02-13T08:43:22.000Z,23.41
2018-02-13T08:53:22.000Z,23.5
2018-02-13T09:03:22.000Z,23.58
2018-02-13T09:13:22.000Z,23.78
2018-02-13T09:23:22.000Z,23.96
2018-02-13T09:33:22.000Z,24.19
2018-02-13T09:43:22.000Z,24.42
2018-02-13T09:53:22.000Z,24.67
2018-02-13T10:03:22.000Z,24.89
2018-02-13T10:13:22.000Z,25.14
2018-02-13T10:23:22.000Z,25.4
2018-02-13T10:33:22.000Z,25.78
2018-02-13T10:43:22.000Z,26.1
2018-02-13T10:53:22.000Z,26.44
2018-02-13T11:03:22.000Z,26.69
2018-02-13T11:13:22.000Z,26.9
2018-02-13T11:23:22.000Z,27.07
2018-02-13T11:33:22.000Z,27.35
2018-02-13T11:43:22.000Z,27.55
2018-02-13T11:53:22.000Z,26.95
2018-02-13T12:03:22.000Z,27.13
2018-02-13T12:13:22.000Z,27.11
2018-02-13T12:23:22.000Z,27.2
2018-02-13T12:33:22.000Z,27.21
2018-02-13T12:43:22.000Z,27.43
2018-02-13T12:53:22.000Z,27.26
2018-02-13T13:03:22.000Z,27.16
2018-02-13T13:13:22.000Z,26.83
2018-02-13T13:23:22.000Z,26.76
2018-02-13T13:33:22.000Z,26.84
2018-02-13T13:43:22.000Z,26.87
2018-02-13T13:53:22.000Z,26.7
2018-02-13T14:03:22.000Z,26.49
2018-02-13T14:13:22.000Z,26.47
2018-02-13T14:23:22.000Z,26.52
2018-02-13T14:33:22.000Z,26.53
2018-02-13T14:43:22.000Z,26.46
2018-02-13T14:53:23.000Z,26.37
2018-02-13T15:03:23.000Z,26.46
2018-02-13T15:03:33.000Z,26.46
2018-02-13T15:13:33.000Z,26.6
2018-02-13T15:23:33.000Z,26.28
2018-02-13T15:33:33.000Z,26.36
2018-02-13T15:43:34.000Z,26.44
2018-02-13T15:53:33.000Z,26.31
2018-02-13T16:03:33.000Z,26.13
2018-02-13T16:13:33.000Z,26.07
2018-02-13T16:23:33.000Z,26
2018-02-13T16:33:33.000Z,26.05
2018-02-13T16:43:33.000Z,26.08
2018-02-13T16:53:33.000Z,25.99
2018-02-13T17:03:33.000Z,26
2018-02-13T17:13:33.000Z,25.82
2018-02-13T17:23:33.000Z,25.77
2018-02-13T17:33:33.000Z,25.89
2018-02-13T17:43:33.000Z,25.88
2018-02-13T17:53:33.000Z,25.99
2018-02-13T18:03:33.000Z,25.75
2018-02-13T18:13:33.000Z,25.83
2018-02-13T18:23:33.000Z,25.81
2018-02-13T18:33:33.000Z,25.79
2018-02-13T18:53:33.000Z,25.68
2018-02-13T19:03:33.000Z,25.62
2018-02-13T19:13:33.000Z,25.59
2018-02-13T19:23:33.000Z,25.66
2018-02-13T19:33:33.000Z,25.56
2018-02-13T19:43:33.000Z,25.61
2018-02-13T19:53:33.000Z,25.56
2018-02-13T20:03:33.000Z,25.54
2018-02-13T20:13:33.000Z,25.57
2018-02-13T20:23:33.000Z,25.58
2018-02-13T20:33:33.000Z,25.52
2018-02-13T20:43:33.000Z,25.55
2018-02-13T20:53:37.000Z,25.4
2018-02-13T21:03:33.000Z,25.48
2018-02-13T21:13:33.000Z,25.48
2018-02-13T21:23:33.000Z,25.39
2018-02-13T21:33:33.000Z,25.59
2018-02-13T21:43:33.000Z,25.47
2018-02-13T21:53:33.000Z,25.36
2018-02-13T22:03:33.000Z,25.32
2018-02-13T22:13:33.000Z,25.26
2018-02-13T22:23:33.000Z,25.3
2018-02-13T22:33:34.000Z,25.18
2018-02-13T22:43:34.000Z,25.19
2018-02-13T22:53:34.000Z,25.11
2018-02-13T23:03:34.000Z,25.02
2018-02-13T23:13:34.000Z,24.93
2018-02-13T23:23:35.000Z,24.87
2018-02-13T23:33:34.000Z,24.85
2018-02-13T23:43:34.000Z,24.83
2018-02-13T23:53:34.000Z,24.73
